sensor_id;sensor_type;location;lat;lon;timestamp;pressure;altitude;pressure_sealevel;temperature;humidity
30182;BME280;16990;49.056;9.240;2022-11-15T00:00:27;98563.00;;;10.12;92.39
30182;BME280;16990;49.056;9.240;2022-11-15T00:02:54;98553.41;;;10.11;92.64
30182;BME280;16990;49.056;9.240;2022-11-15T00:05:21;98542.44;;;10.25;92.54
30182;BME280;16990;49.056;9.240;2022-11-15T00:07:48;98538.53;;;10.15;92.66
30182;BME280;16990;49.056;9.240;2022-11-15T00:10:15;98542.31;;;10.19;92.45
30182;BME280;16990;49.056;9.240;2022-11-15T00:12:43;98535.28;;;10.13;92.21
30182;BME280;16990;49.056;9.240;2022-11-15T00:15:10;98546.53;;;10.15;92.35
30182;BME280;16990;49.056;9.240;2022-11-15T00:17:36;98538.66;;;10.09;92.84
30182;BME280;16990;49.056;9.240;2022-11-15T00:20:07;98541.41;;;10.14;93.14
30182;BME280;16990;49.056;9.240;2022-11-15T00:22:34;98544.22;;;10.07;94.06
30182;BME280;16990;49.056;9.240;2022-11-15T00:25:00;98556.75;;;10.07;94.62
30182;BME280;16990;49.056;9.240;2022-11-15T00:27:28;98541.66;;;10.00;95.62
30182;BME280;16990;49.056;9.240;2022-11-15T00:29:56;98537.59;;;10.10;94.58
30182;BME280;16990;49.056;9.240;2022-11-15T00:32:23;98539.44;;;10.09;94.41
30182;BME280;16990;49.056;9.240;2022-11-15T00:34:50;98540.84;;;10.00;95.30
30182;BME280;16990;49.056;9.240;2022-11-15T00:37:16;98542.38;;;9.96;95.78
30182;BME280;16990;49.056;9.240;2022-11-15T00:39:43;98539.59;;;9.91;96.04
30182;BME280;16990;49.056;9.240;2022-11-15T00:42:10;98531.56;;;9.91;96.46
30182;BME280;16990;49.056;9.240;2022-11-15T00:44:36;98526.72;;;9.88;97.09
30182;BME280;16990;49.056;9.240;2022-11-15T00:47:04;98528.22;;;9.84;97.40
30182;BME280;16990;49.056;9.240;2022-11-15T00:49:31;98531.34;;;9.80;97.49
30182;BME280;16990;49.056;9.240;2022-11-15T00:51:57;98531.72;;;9.84;97.95
30182;BME280;16990;49.056;9.240;2022-11-15T00:54:24;98522.78;;;9.78;98.14
30182;BME280;16990;49.056;9.240;2022-11-15T00:56:51;98530.19;;;9.76;98.14
30182;BME280;16990;49.056;9.240;2022-11-15T00:59:17;98518.94;;;9.74;97.79
30182;BME280;16990;49.056;9.240;2022-11-15T01:01:44;98522.88;;;9.72;97.57
30182;BME280;16990;49.056;9.240;2022-11-15T01:04:12;98525.00;;;9.70;97.75
30182;BME280;16990;49.056;9.240;2022-11-15T01:06:39;98517.44;;;9.67;97.56
30182;BME280;16990;49.056;9.240;2022-11-15T01:09:06;98514.91;;;9.60;97.64
30182;BME280;16990;49.056;9.240;2022-11-15T01:11:33;98514.31;;;9.58;98.18
30182;BME280;16990;49.056;9.240;2022-11-15T01:13:59;98504.34;;;9.53;97.95
30182;BME280;16990;49.056;9.240;2022-11-15T01:16:26;98498.63;;;9.50;98.20
30182;BME280;16990;49.056;9.240;2022-11-15T01:18:53;98509.78;;;9.47;97.76
30182;BME280;16990;49.056;9.240;2022-11-15T01:21:21;98489.81;;;9.37;98.60
30182;BME280;16990;49.056;9.240;2022-11-15T01:23:47;98491.22;;;9.28;98.93
30182;BME280;16990;49.056;9.240;2022-11-15T01:26:15;98497.59;;;9.27;99.52
30182;BME280;16990;49.056;9.240;2022-11-15T01:28:42;98499.78;;;9.30;100.00
30182;BME280;16990;49.056;9.240;2022-11-15T01:31:13;98485.16;;;9.21;100.00
30182;BME280;16990;49.056;9.240;2022-11-15T01:33:40;98497.22;;;9.12;100.00
30182;BME280;16990;49.056;9.240;2022-11-15T01:36:10;98483.06;;;9.00;100.00
30182;BME280;16990;49.056;9.240;2022-11-15T01:38:39;98475.53;;;8.97;100.00
30182;BME280;16990;49.056;9.240;2022-11-15T01:41:05;98483.63;;;8.90;100.00
30182;BME280;16990;49.056;9.240;2022-11-15T01:43:34;98482.69;;;8.84;100.00
30182;BME280;16990;49.056;9.240;2022-11-15T01:46:04;98480.59;;;8.75;100.00
30182;BME280;16990;49.056;9.240;2022-11-15T01:48:33;98474.44;;;8.74;100.00
30182;BME280;16990;49.056;9.240;2022-11-15T01:51:02;98469.28;;;9.03;99.37
30182;BME280;16990;49.056;9.240;2022-11-15T01:53:31;98465.50;;;8.80;100.00
30182;BME280;16990;49.056;9.240;2022-11-15T01:56:02;98465.38;;;8.63;100.00
30182;BME280;16990;49.056;9.240;2022-11-15T01:58:31;98463.88;;;8.67;100.00
30182;BME280;16990;49.056;9.240;2022-11-15T02:00:59;98459.94;;;8.70;100.00
30182;BME280;16990;49.056;9.240;2022-11-15T02:03:33;98463.38;;;8.59;100.00
30182;BME280;16990;49.056;9.240;2022-11-15T02:06:03;98467.28;;;8.86;100.00
30182;BME280;16990;49.056;9.240;2022-11-15T02:08:31;98466.03;;;8.59;100.00
30182;BME280;16990;49.056;9.240;2022-11-15T02:10:58;98466.16;;;8.64;100.00
30182;BME280;16990;49.056;9.240;2022-11-15T02:13:26;98461.34;;;8.42;100.00
30182;BME280;16990;49.056;9.240;2022-11-15T02:15:59;98455.38;;;8.59;100.00
30182;BME280;16990;49.056;9.240;2022-11-15T02:18:33;98453.47;;;8.47;100.00
30182;BME280;16990;49.056;9.240;2022-11-15T02:21:08;98444.34;;;8.43;100.00
30182;BME280;16990;49.056;9.240;2022-11-15T02:24:08;98439.28;;;8.35;100.00
30182;BME280;16990;49.056;9.240;2022-11-15T02:30:04;98432.34;;;8.34;100.00
30182;BME280;16990;49.056;9.240;2022-11-15T02:32:37;98447.94;;;8.30;100.00
30182;BME280;16990;49.056;9.240;2022-11-15T02:35:12;98441.94;;;8.35;100.00
30182;BME280;16990;49.056;9.240;2022-11-15T02:37:44;98423.63;;;8.27;100.00
30182;BME280;16990;49.056;9.240;2022-11-15T02:40:17;98431.75;;;8.32;100.00
30182;BME280;16990;49.056;9.240;2022-11-15T02:42:50;98435.72;;;8.60;100.00
30182;BME280;16990;49.056;9.240;2022-11-15T02:45:41;98424.81;;;8.73;100.00
30182;BME280;16990;49.056;9.240;2022-11-15T02:48:12;98423.22;;;8.72;100.00
30182;BME280;16990;49.056;9.240;2022-11-15T02:50:40;98423.53;;;8.64;100.00
30182;BME280;16990;49.056;9.240;2022-11-15T02:53:07;98411.69;;;8.48;100.00
30182;BME280;16990;49.056;9.240;2022-11-15T02:55:35;98421.50;;;8.47;100.00
30182;BME280;16990;49.056;9.240;2022-11-15T02:58:19;98414.03;;;8.38;100.00
30182;BME280;16990;49.056;9.240;2022-11-15T03:00:54;98408.59;;;8.32;100.00
30182;BME280;16990;49.056;9.240;2022-11-15T03:03:39;98413.78;;;8.27;100.00
30182;BME280;16990;49.056;9.240;2022-11-15T03:06:16;98403.47;;;8.19;100.00
30182;BME280;16990;49.056;9.240;2022-11-15T03:08:53;98416.91;;;8.24;100.00
30182;BME280;16990;49.056;9.240;2022-11-15T03:11:23;98412.84;;;8.22;100.00
30182;BME280;16990;49.056;9.240;2022-11-15T03:13:57;98414.59;;;8.28;100.00
30182;BME280;16990;49.056;9.240;2022-11-15T03:16:29;98412.97;;;8.27;100.00
30182;BME280;16990;49.056;9.240;2022-11-15T03:19:03;98400.38;;;8.34;100.00
30182;BME280;16990;49.056;9.240;2022-11-15T03:21:32;98402.81;;;8.36;100.00
30182;BME280;16990;49.056;9.240;2022-11-15T03:24:03;98394.00;;;8.35;100.00
30182;BME280;16990;49.056;9.240;2022-11-15T03:26:33;98400.06;;;8.42;100.00
30182;BME280;16990;49.056;9.240;2022-11-15T03:29:03;98392.34;;;8.52;100.00
30182;BME280;16990;49.056;9.240;2022-11-15T03:31:34;98396.13;;;8.45;100.00
30182;BME280;16990;49.056;9.240;2022-11-15T03:34:19;98391.31;;;8.54;100.00
30182;BME280;16990;49.056;9.240;2022-11-15T03:39:16;98386.31;;;8.45;100.00
30182;BME280;16990;49.056;9.240;2022-11-15T03:41:47;98382.00;;;8.44;100.00
30182;BME280;16990;49.056;9.240;2022-11-15T03:44:21;98385.13;;;8.41;100.00
30182;BME280;16990;49.056;9.240;2022-11-15T03:46:57;98385.56;;;8.38;100.00
30182;BME280;16990;49.056;9.240;2022-11-15T03:49:29;98374.22;;;8.31;100.00
30182;BME280;16990;49.056;9.240;2022-11-15T03:52:00;98389.59;;;8.29;100.00
30182;BME280;16990;49.056;9.240;2022-11-15T03:54:28;98388.41;;;8.25;100.00
30182;BME280;16990;49.056;9.240;2022-11-15T03:56:55;98382.50;;;8.23;100.00
30182;BME280;16990;49.056;9.240;2022-11-15T03:59:22;98381.94;;;8.32;100.00
30182;BME280;16990;49.056;9.240;2022-11-15T04:01:49;98381.03;;;8.27;100.00
30182;BME280;16990;49.056;9.240;2022-11-15T04:04:15;98372.56;;;8.30;100.00
30182;BME280;16990;49.056;9.240;2022-11-15T04:06:43;98372.25;;;8.38;100.00
30182;BME280;16990;49.056;9.240;2022-11-15T04:09:10;98374.34;;;8.36;100.00
30182;BME280;16990;49.056;9.240;2022-11-15T04:11:37;98371.66;;;8.36;100.00
30182;BME280;16990;49.056;9.240;2022-11-15T04:14:03;98372.84;;;8.40;100.00
30182;BME280;16990;49.056;9.240;2022-11-15T04:16:30;98368.34;;;8.41;100.00
30182;BME280;16990;49.056;9.240;2022-11-15T04:18:57;98359.69;;;8.45;100.00
30182;BME280;16990;49.056;9.240;2022-11-15T04:21:41;98366.63;;;8.46;100.00
30182;BME280;16990;49.056;9.240;2022-11-15T04:24:27;98353.59;;;8.38;100.00
30182;BME280;16990;49.056;9.240;2022-11-15T04:26:53;98369.16;;;8.41;100.00
30182;BME280;16990;49.056;9.240;2022-11-15T04:29:20;98363.22;;;8.39;100.00
30182;BME280;16990;49.056;9.240;2022-11-15T04:32:02;98366.50;;;8.41;100.00
30182;BME280;16990;49.056;9.240;2022-11-15T04:34:29;98365.81;;;8.46;100.00
30182;BME280;16990;49.056;9.240;2022-11-15T04:36:56;98359.69;;;8.45;100.00
30182;BME280;16990;49.056;9.240;2022-11-15T04:39:39;98356.66;;;8.54;100.00
30182;BME280;16990;49.056;9.240;2022-11-15T04:42:07;98358.88;;;8.57;100.00
30182;BME280;16990;49.056;9.240;2022-11-15T04:44:34;98356.81;;;8.70;100.00
30182;BME280;16990;49.056;9.240;2022-11-15T04:47:01;98358.53;;;8.65;100.00
30182;BME280;16990;49.056;9.240;2022-11-15T04:49:27;98360.16;;;8.66;100.00
30182;BME280;16990;49.056;9.240;2022-11-15T04:51:54;98350.06;;;8.56;100.00
30182;BME280;16990;49.056;9.240;2022-11-15T04:54:21;98341.72;;;8.52;100.00
30182;BME280;16990;49.056;9.240;2022-11-15T04:56:49;98343.81;;;8.50;100.00
30182;BME280;16990;49.056;9.240;2022-11-15T04:59:15;98342.88;;;8.68;100.00
30182;BME280;16990;49.056;9.240;2022-11-15T05:01:42;98330.72;;;8.61;100.00
30182;BME280;16990;49.056;9.240;2022-11-15T05:04:08;98334.88;;;8.57;100.00
30182;BME280;16990;49.056;9.240;2022-11-15T05:06:48;98326.78;;;8.51;100.00
30182;BME280;16990;49.056;9.240;2022-11-15T05:09:15;98332.56;;;8.48;100.00
30182;BME280;16990;49.056;9.240;2022-11-15T05:11:42;98335.00;;;8.50;100.00
30182;BME280;16990;49.056;9.240;2022-11-15T05:14:10;98334.53;;;8.53;100.00
30182;BME280;16990;49.056;9.240;2022-11-15T05:16:37;98329.44;;;8.51;100.00
30182;BME280;16990;49.056;9.240;2022-11-15T05:19:04;98316.59;;;8.48;100.00
30182;BME280;16990;49.056;9.240;2022-11-15T05:21:32;98322.72;;;8.49;100.00
30182;BME280;16990;49.056;9.240;2022-11-15T05:23:59;98317.59;;;8.47;100.00
30182;BME280;16990;49.056;9.240;2022-11-15T05:26:26;98328.75;;;8.56;100.00
30182;BME280;16990;49.056;9.240;2022-11-15T05:28:53;98329.31;;;8.46;100.00
30182;BME280;16990;49.056;9.240;2022-11-15T05:31:22;98324.69;;;8.42;100.00
30182;BME280;16990;49.056;9.240;2022-11-15T05:33:50;98319.56;;;8.40;100.00
30182;BME280;16990;49.056;9.240;2022-11-15T05:36:20;98315.94;;;8.35;100.00
30182;BME280;16990;49.056;9.240;2022-11-15T05:38:48;98325.72;;;8.41;100.00
30182;BME280;16990;49.056;9.240;2022-11-15T05:41:17;98315.59;;;8.31;100.00
30182;BME280;16990;49.056;9.240;2022-11-15T05:43:46;98306.44;;;8.27;100.00
30182;BME280;16990;49.056;9.240;2022-11-15T05:46:14;98315.47;;;8.26;100.00
30182;BME280;16990;49.056;9.240;2022-11-15T05:48:45;98311.06;;;8.20;100.00
30182;BME280;16990;49.056;9.240;2022-11-15T05:51:15;98310.69;;;8.16;100.00
30182;BME280;16990;49.056;9.240;2022-11-15T05:53:44;98319.63;;;8.22;100.00
30182;BME280;16990;49.056;9.240;2022-11-15T05:56:12;98309.31;;;8.14;100.00
30182;BME280;16990;49.056;9.240;2022-11-15T05:58:39;98315.81;;;8.18;100.00
30182;BME280;16990;49.056;9.240;2022-11-15T06:01:05;98311.16;;;8.13;100.00
30182;BME280;16990;49.056;9.240;2022-11-15T06:03:32;98312.63;;;8.09;100.00
30182;BME280;16990;49.056;9.240;2022-11-15T06:06:00;98318.69;;;8.16;100.00
30182;BME280;16990;49.056;9.240;2022-11-15T06:08:27;98304.44;;;8.10;100.00
30182;BME280;16990;49.056;9.240;2022-11-15T06:10:54;98313.75;;;8.31;100.00
30182;BME280;16990;49.056;9.240;2022-11-15T06:13:20;98310.47;;;8.18;100.00
30182;BME280;16990;49.056;9.240;2022-11-15T06:15:47;98318.34;;;8.13;100.00
30182;BME280;16990;49.056;9.240;2022-11-15T06:18:14;98313.72;;;8.20;100.00
30182;BME280;16990;49.056;9.240;2022-11-15T06:20:40;98321.94;;;8.18;100.00
30182;BME280;16990;49.056;9.240;2022-11-15T06:23:08;98311.75;;;8.15;100.00
30182;BME280;16990;49.056;9.240;2022-11-15T06:25:35;98318.81;;;8.09;100.00
30182;BME280;16990;49.056;9.240;2022-11-15T06:28:02;98310.81;;;8.09;100.00
30182;BME280;16990;49.056;9.240;2022-11-15T06:30:29;98320.50;;;8.04;100.00
30182;BME280;16990;49.056;9.240;2022-11-15T06:32:59;98311.59;;;7.98;100.00
30182;BME280;16990;49.056;9.240;2022-11-15T06:35:28;98312.47;;;7.92;100.00
30182;BME280;16990;49.056;9.240;2022-11-15T06:37:55;98327.66;;;7.92;100.00
30182;BME280;16990;49.056;9.240;2022-11-15T06:40:23;98310.88;;;7.91;100.00
30182;BME280;16990;49.056;9.240;2022-11-15T06:42:50;98311.34;;;7.88;100.00
30182;BME280;16990;49.056;9.240;2022-11-15T06:45:17;98314.72;;;7.95;100.00
30182;BME280;16990;49.056;9.240;2022-11-15T06:47:46;98307.75;;;7.94;100.00
30182;BME280;16990;49.056;9.240;2022-11-15T06:50:13;98315.06;;;7.99;100.00
30182;BME280;16990;49.056;9.240;2022-11-15T06:52:40;98319.69;;;8.03;100.00
30182;BME280;16990;49.056;9.240;2022-11-15T06:55:08;98322.94;;;8.05;100.00
30182;BME280;16990;49.056;9.240;2022-11-15T06:57:36;98326.13;;;8.14;100.00
30182;BME280;16990;49.056;9.240;2022-11-15T07:00:04;98325.41;;;8.19;100.00
30182;BME280;16990;49.056;9.240;2022-11-15T07:02:31;98324.50;;;8.25;100.00
30182;BME280;16990;49.056;9.240;2022-11-15T07:04:58;98321.25;;;8.23;100.00
30182;BME280;16990;49.056;9.240;2022-11-15T07:07:24;98333.91;;;8.39;100.00
30182;BME280;16990;49.056;9.240;2022-11-15T07:09:51;98323.72;;;8.36;100.00
30182;BME280;16990;49.056;9.240;2022-11-15T07:12:18;98313.81;;;8.43;100.00
30182;BME280;16990;49.056;9.240;2022-11-15T07:14:46;98316.91;;;8.40;100.00
30182;BME280;16990;49.056;9.240;2022-11-15T07:17:12;98315.19;;;8.58;100.00
30182;BME280;16990;49.056;9.240;2022-11-15T07:19:39;98316.47;;;8.55;100.00
30182;BME280;16990;49.056;9.240;2022-11-15T07:22:06;98318.19;;;8.49;100.00
30182;BME280;16990;49.056;9.240;2022-11-15T07:24:33;98324.69;;;8.54;100.00
30182;BME280;16990;49.056;9.240;2022-11-15T07:26:59;98314.63;;;8.67;100.00
30182;BME280;16990;49.056;9.240;2022-11-15T07:29:26;98316.94;;;8.64;100.00
30182;BME280;16990;49.056;9.240;2022-11-15T07:31:54;98319.00;;;8.85;100.00
30182;BME280;16990;49.056;9.240;2022-11-15T07:34:21;98315.66;;;8.78;100.00
30182;BME280;16990;49.056;9.240;2022-11-15T07:36:49;98322.47;;;8.86;100.00
30182;BME280;16990;49.056;9.240;2022-11-15T07:39:15;98316.59;;;8.96;100.00
30182;BME280;16990;49.056;9.240;2022-11-15T07:41:42;98324.22;;;9.04;100.00
30182;BME280;16990;49.056;9.240;2022-11-15T07:44:10;98318.41;;;9.19;99.36
30182;BME280;16990;49.056;9.240;2022-11-15T07:46:37;98325.94;;;9.22;98.87
30182;BME280;16990;49.056;9.240;2022-11-15T07:49:05;98318.19;;;9.20;99.00
30182;BME280;16990;49.056;9.240;2022-11-15T07:51:32;98320.81;;;9.32;97.93
30182;BME280;16990;49.056;9.240;2022-11-15T07:53:58;98322.41;;;9.45;96.99
30182;BME280;16990;49.056;9.240;2022-11-15T07:56:25;98338.00;;;9.65;96.39
30182;BME280;16990;49.056;9.240;2022-11-15T07:58:52;98326.47;;;9.76;95.36
30182;BME280;16990;49.056;9.240;2022-11-15T08:01:19;98318.59;;;9.69;95.73
30182;BME280;16990;49.056;9.240;2022-11-15T08:03:45;98317.38;;;9.89;95.46
30182;BME280;16990;49.056;9.240;2022-11-15T08:06:13;98315.13;;;9.97;94.24
30182;BME280;16990;49.056;9.240;2022-11-15T08:08:40;98315.34;;;9.96;93.66
30182;BME280;16990;49.056;9.240;2022-11-15T08:11:07;98315.25;;;10.19;91.08
30182;BME280;16990;49.056;9.240;2022-11-15T08:13:33;98323.75;;;10.16;91.83
30182;BME280;16990;49.056;9.240;2022-11-15T08:16:02;98317.41;;;10.34;95.24
30182;BME280;16990;49.056;9.240;2022-11-15T08:18:30;98315.31;;;10.25;91.85
30182;BME280;16990;49.056;9.240;2022-11-15T08:20:59;98312.56;;;10.19;92.40
30182;BME280;16990;49.056;9.240;2022-11-15T08:23:27;98311.44;;;10.15;92.56
30182;BME280;16990;49.056;9.240;2022-11-15T08:25:59;98307.13;;;10.14;93.38
30182;BME280;16990;49.056;9.240;2022-11-15T08:28:26;98309.72;;;10.09;93.54
30182;BME280;16990;49.056;9.240;2022-11-15T08:30:52;98313.47;;;10.08;94.62
30182;BME280;16990;49.056;9.240;2022-11-15T08:33:19;98305.91;;;10.05;95.17
30182;BME280;16990;49.056;9.240;2022-11-15T08:35:46;98304.88;;;10.06;95.97
30182;BME280;16990;49.056;9.240;2022-11-15T08:38:13;98304.56;;;10.19;96.61
30182;BME280;16990;49.056;9.240;2022-11-15T08:40:41;98307.47;;;10.18;97.77
30182;BME280;16990;49.056;9.240;2022-11-15T08:43:07;98295.81;;;10.24;98.29
30182;BME280;16990;49.056;9.240;2022-11-15T08:45:35;98300.22;;;10.47;95.83
30182;BME280;16990;49.056;9.240;2022-11-15T08:48:02;98295.69;;;10.48;97.13
30182;BME280;16990;49.056;9.240;2022-11-15T08:50:29;98293.91;;;10.53;98.31
30182;BME280;16990;49.056;9.240;2022-11-15T08:52:56;98290.69;;;10.51;95.93
30182;BME280;16990;49.056;9.240;2022-11-15T08:55:23;98282.91;;;10.50;96.23
30182;BME280;16990;49.056;9.240;2022-11-15T08:57:51;98280.00;;;10.51;96.75
30182;BME280;16990;49.056;9.240;2022-11-15T09:00:18;98281.59;;;10.52;95.56
30182;BME280;16990;49.056;9.240;2022-11-15T09:02:46;98286.06;;;10.63;94.78
30182;BME280;16990;49.056;9.240;2022-11-15T09:05:13;98286.13;;;10.69;93.42
30182;BME280;16990;49.056;9.240;2022-11-15T09:07:40;98272.66;;;10.80;94.51
30182;BME280;16990;49.056;9.240;2022-11-15T09:10:08;98270.50;;;10.99;94.39
30182;BME280;16990;49.056;9.240;2022-11-15T09:12:35;98269.19;;;11.02;92.10
30182;BME280;16990;49.056;9.240;2022-11-15T09:15:04;98273.38;;;11.15;91.20
30182;BME280;16990;49.056;9.240;2022-11-15T09:17:30;98270.91;;;11.13;90.29
30182;BME280;16990;49.056;9.240;2022-11-15T09:19:57;98269.13;;;11.19;91.24
30182;BME280;16990;49.056;9.240;2022-11-15T09:22:24;98287.25;;;11.34;90.33
30182;BME280;16990;49.056;9.240;2022-11-15T09:24:51;98259.41;;;11.35;90.09
30182;BME280;16990;49.056;9.240;2022-11-15T09:27:18;98265.66;;;11.40;92.44
30182;BME280;16990;49.056;9.240;2022-11-15T09:29:44;98277.44;;;11.44;92.06
30182;BME280;16990;49.056;9.240;2022-11-15T09:32:12;98259.94;;;11.59;92.69
30182;BME280;16990;49.056;9.240;2022-11-15T09:34:39;98269.59;;;11.60;91.93
30182;BME280;16990;49.056;9.240;2022-11-15T09:37:06;98263.53;;;11.69;89.01
30182;BME280;16990;49.056;9.240;2022-11-15T09:39:33;98266.97;;;11.65;89.53
30182;BME280;16990;49.056;9.240;2022-11-15T09:42:20;98257.88;;;11.66;91.06
30182;BME280;16990;49.056;9.240;2022-11-15T09:45:03;98264.88;;;11.67;91.33
30182;BME280;16990;49.056;9.240;2022-11-15T09:50:38;98260.13;;;11.74;90.81
30182;BME280;16990;49.056;9.240;2022-11-15T09:53:11;98261.22;;;11.78;90.05
30182;BME280;16990;49.056;9.240;2022-11-15T09:55:49;98260.75;;;11.86;87.74
30182;BME280;16990;49.056;9.240;2022-11-15T09:58:22;98262.09;;;11.84;88.27
30182;BME280;16990;49.056;9.240;2022-11-15T10:00:51;98250.88;;;11.87;86.92
30182;BME280;16990;49.056;9.240;2022-11-15T10:03:25;98250.13;;;11.91;87.15
30182;BME280;16990;49.056;9.240;2022-11-15T10:05:55;98244.31;;;12.00;83.86
30182;BME280;16990;49.056;9.240;2022-11-15T10:08:33;98256.09;;;11.99;84.96
30182;BME280;16990;49.056;9.240;2022-11-15T10:11:03;98243.75;;;11.98;85.65
30182;BME280;16990;49.056;9.240;2022-11-15T10:13:33;98245.97;;;12.06;85.38
30182;BME280;16990;49.056;9.240;2022-11-15T10:16:08;98236.03;;;12.06;85.69
30182;BME280;16990;49.056;9.240;2022-11-15T10:18:44;98232.13;;;12.14;83.60
30182;BME280;16990;49.056;9.240;2022-11-15T10:21:21;98228.94;;;12.22;81.78
30182;BME280;16990;49.056;9.240;2022-11-15T10:23:50;98229.59;;;12.40;81.51
30182;BME280;16990;49.056;9.240;2022-11-15T10:26:17;98225.56;;;12.37;81.46
30182;BME280;16990;49.056;9.240;2022-11-15T10:28:43;98215.06;;;12.30;81.93
30182;BME280;16990;49.056;9.240;2022-11-15T10:31:21;98215.63;;;12.38;83.16
30182;BME280;16990;49.056;9.240;2022-11-15T10:33:51;98206.03;;;12.42;79.91
30182;BME280;16990;49.056;9.240;2022-11-15T10:36:20;98204.72;;;12.49;80.78
30182;BME280;16990;49.056;9.240;2022-11-15T10:38:55;98202.28;;;12.43;81.19
30182;BME280;16990;49.056;9.240;2022-11-15T10:41:30;98211.38;;;12.42;82.31
30182;BME280;16990;49.056;9.240;2022-11-15T10:44:22;98194.53;;;12.46;81.18
30182;BME280;16990;49.056;9.240;2022-11-15T10:49:57;98188.09;;;12.47;81.56
30182;BME280;16990;49.056;9.240;2022-11-15T10:52:24;98188.91;;;12.48;82.68
30182;BME280;16990;49.056;9.240;2022-11-15T10:54:54;98181.44;;;12.50;82.67
30182;BME280;16990;49.056;9.240;2022-11-15T10:57:23;98182.22;;;12.50;83.58
30182;BME280;16990;49.056;9.240;2022-11-15T10:59:53;98187.84;;;12.49;82.74
30182;BME280;16990;49.056;9.240;2022-11-15T11:02:28;98176.06;;;12.50;82.74
30182;BME280;16990;49.056;9.240;2022-11-15T11:04:56;98168.53;;;12.52;83.86
30182;BME280;16990;49.056;9.240;2022-11-15T11:07:24;98168.84;;;12.55;84.78
30182;BME280;16990;49.056;9.240;2022-11-15T11:09:57;98163.19;;;12.52;84.28
30182;BME280;16990;49.056;9.240;2022-11-15T11:12:28;98160.47;;;12.47;83.26
30182;BME280;16990;49.056;9.240;2022-11-15T11:14:57;98165.06;;;12.51;82.89
30182;BME280;16990;49.056;9.240;2022-11-15T11:17:32;98166.41;;;12.54;81.48
30182;BME280;16990;49.056;9.240;2022-11-15T11:20:09;98161.06;;;12.54;81.67
30182;BME280;16990;49.056;9.240;2022-11-15T11:22:42;98165.63;;;12.59;82.47
30182;BME280;16990;49.056;9.240;2022-11-15T11:25:22;98167.50;;;12.58;81.54
30182;BME280;16990;49.056;9.240;2022-11-15T11:28:05;98165.59;;;12.53;81.84
30182;BME280;16990;49.056;9.240;2022-11-15T11:30:47;98160.47;;;12.47;82.33
30182;BME280;16990;49.056;9.240;2022-11-15T11:33:17;98162.09;;;12.48;82.59
30182;BME280;16990;49.056;9.240;2022-11-15T11:36:03;98162.09;;;12.48;83.21
30182;BME280;16990;49.056;9.240;2022-11-15T11:38:43;98156.22;;;12.51;83.65
30182;BME280;16990;49.056;9.240;2022-11-15T11:41:27;98154.69;;;12.65;85.22
30182;BME280;16990;49.056;9.240;2022-11-15T11:44:08;98151.47;;;12.68;82.22
30182;BME280;16990;49.056;9.240;2022-11-15T11:46:48;98154.16;;;12.73;80.07
30182;BME280;16990;49.056;9.240;2022-11-15T11:49:19;98150.47;;;12.90;84.31
30182;BME280;16990;49.056;9.240;2022-11-15T11:51:54;98138.75;;;13.11;86.81
30182;BME280;16990;49.056;9.240;2022-11-15T11:54:29;98119.41;;;13.14;81.12
30182;BME280;16990;49.056;9.240;2022-11-15T11:57:03;98125.31;;;13.11;79.80
30182;BME280;16990;49.056;9.240;2022-11-15T11:59:37;98130.69;;;13.11;79.27
30182;BME280;16990;49.056;9.240;2022-11-15T12:02:14;98110.31;;;13.10;79.64
30182;BME280;16990;49.056;9.240;2022-11-15T12:04:46;98110.56;;;13.14;79.39
30182;BME280;16990;49.056;9.240;2022-11-15T12:07:20;98105.97;;;13.09;79.95
30182;BME280;16990;49.056;9.240;2022-11-15T12:09:53;98107.38;;;13.17;80.83
30182;BME280;16990;49.056;9.240;2022-11-15T12:12:25;98110.84;;;13.17;82.46
30182;BME280;16990;49.056;9.240;2022-11-15T12:14:56;98099.56;;;13.20;83.11
30182;BME280;16990;49.056;9.240;2022-11-15T12:17:25;98093.41;;;13.20;82.40
30182;BME280;16990;49.056;9.240;2022-11-15T12:19:56;98089.38;;;13.23;82.55
30182;BME280;16990;49.056;9.240;2022-11-15T12:22:32;98095.28;;;13.25;83.00
30182;BME280;16990;49.056;9.240;2022-11-15T12:25:02;98092.63;;;13.30;83.20
30182;BME280;16990;49.056;9.240;2022-11-15T12:27:34;98085.34;;;13.25;83.27
30182;BME280;16990;49.056;9.240;2022-11-15T12:30:09;98083.50;;;13.31;83.45
30182;BME280;16990;49.056;9.240;2022-11-15T12:32:38;98076.53;;;13.35;84.29
30182;BME280;16990;49.056;9.240;2022-11-15T12:35:22;98084.84;;;13.59;82.72
30182;BME280;16990;49.056;9.240;2022-11-15T12:37:51;98073.84;;;13.66;81.11
30182;BME280;16990;49.056;9.240;2022-11-15T12:40:31;98079.22;;;13.60;81.50
30182;BME280;16990;49.056;9.240;2022-11-15T12:43:05;98089.41;;;13.69;80.68
30182;BME280;16990;49.056;9.240;2022-11-15T12:45:50;98078.69;;;13.69;80.65
30182;BME280;16990;49.056;9.240;2022-11-15T12:48:52;98077.34;;;13.66;79.51
30182;BME280;16990;49.056;9.240;2022-11-15T12:51:20;98074.94;;;13.70;79.54
30182;BME280;16990;49.056;9.240;2022-11-15T12:53:49;98070.59;;;13.74;79.39
30182;BME280;16990;49.056;9.240;2022-11-15T12:56:22;98045.88;;;13.72;78.68
30182;BME280;16990;49.056;9.240;2022-11-15T12:58:52;98057.44;;;13.82;78.06
30182;BME280;16990;49.056;9.240;2022-11-15T13:04:26;98046.16;;;13.96;77.97
30182;BME280;16990;49.056;9.240;2022-11-15T13:06:55;98045.91;;;13.77;79.28
30182;BME280;16990;49.056;9.240;2022-11-15T13:09:53;98046.97;;;13.76;79.66
30182;BME280;16990;49.056;9.240;2022-11-15T13:12:52;98058.81;;;13.70;80.73
30182;BME280;16990;49.056;9.240;2022-11-15T13:15:40;98036.25;;;13.66;81.19
30182;BME280;16990;49.056;9.240;2022-11-15T13:18:35;98039.47;;;13.63;81.39
30182;BME280;16990;49.056;9.240;2022-11-15T13:21:20;98019.84;;;13.72;80.69
30182;BME280;16990;49.056;9.240;2022-11-15T13:24:10;98020.13;;;13.66;81.48
30182;BME280;16990;49.056;9.240;2022-11-15T13:26:40;98009.13;;;13.67;81.49
30182;BME280;16990;49.056;9.240;2022-11-15T13:29:16;98007.47;;;13.71;80.91
30182;BME280;16990;49.056;9.240;2022-11-15T13:31:44;98010.44;;;13.80;80.80
30182;BME280;16990;49.056;9.240;2022-11-15T13:34:22;98006.97;;;13.74;81.16